sensor_id;sensor_type;location;lat;lon;timestamp;temperature;humidity
19242;DHT22;9755;47.790;9.620;2023-07-31T00:01:58;13.20;99.90
19242;DHT22;9755;47.790;9.620;2023-07-31T00:04:27;13.00;99.90
19242;DHT22;9755;47.790;9.620;2023-07-31T00:06:54;12.80;99.90
19242;DHT22;9755;47.790;9.620;2023-07-31T00:09:21;12.70;99.90
19242;DHT22;9755;47.790;9.620;2023-07-31T00:11:48;12.80;99.90
19242;DHT22;9755;47.790;9.620;2023-07-31T00:14:15;12.80;99.90
19242;DHT22;9755;47.790;9.620;2023-07-31T00:16:45;12.80;99.90
19242;DHT22;9755;47.790;9.620;2023-07-31T00:19:12;12.90;99.90
19242;DHT22;9755;47.790;9.620;2023-07-31T00:21:40;13.00;99.90
19242;DHT22;9755;47.790;9.620;2023-07-31T00:24:08;13.00;99.90
19242;DHT22;9755;47.790;9.620;2023-07-31T00:26:35;13.10;99.90
19242;DHT22;9755;47.790;9.620;2023-07-31T00:29:02;13.00;99.90
19242;DHT22;9755;47.790;9.620;2023-07-31T00:31:29;12.90;99.90
19242;DHT22;9755;47.790;9.620;2023-07-31T00:33:56;12.90;99.90
19242;DHT22;9755;47.790;9.620;2023-07-31T00:36:23;12.70;99.90
19242;DHT22;9755;47.790;9.620;2023-07-31T00:38:51;12.40;99.90
19242;DHT22;9755;47.790;9.620;2023-07-31T00:41:20;12.30;99.90
19242;DHT22;9755;47.790;9.620;2023-07-31T00:43:47;12.00;99.90
19242;DHT22;9755;47.790;9.620;2023-07-31T00:46:14;11.90;99.90
19242;DHT22;9755;47.790;9.620;2023-07-31T00:48:42;11.80;99.90
19242;DHT22;9755;47.790;9.620;2023-07-31T00:51:09;11.80;99.90
19242;DHT22;9755;47.790;9.620;2023-07-31T00:53:40;11.80;99.90
19242;DHT22;9755;47.790;9.620;2023-07-31T00:56:10;11.80;99.90
19242;DHT22;9755;47.790;9.620;2023-07-31T00:58:40;11.80;99.90
19242;DHT22;9755;47.790;9.620;2023-07-31T01:01:09;11.80;99.90
19242;DHT22;9755;47.790;9.620;2023-07-31T01:03:36;11.90;99.90
19242;DHT22;9755;47.790;9.620;2023-07-31T01:06:14;11.90;99.90
19242;DHT22;9755;47.790;9.620;2023-07-31T01:08:47;11.90;99.90
19242;DHT22;9755;47.790;9.620;2023-07-31T01:11:22;11.90;99.90
19242;DHT22;9755;47.790;9.620;2023-07-31T01:13:55;12.10;99.90
19242;DHT22;9755;47.790;9.620;2023-07-31T01:16:22;12.10;99.90
19242;DHT22;9755;47.790;9.620;2023-07-31T01:18:52;12.20;99.90
19242;DHT22;9755;47.790;9.620;2023-07-31T01:21:28;12.20;99.90
19242;DHT22;9755;47.790;9.620;2023-07-31T01:24:22;12.00;99.90
19242;DHT22;9755;47.790;9.620;2023-07-31T01:26:56;11.90;99.90
19242;DHT22;9755;47.790;9.620;2023-07-31T01:29:32;12.00;99.90
19242;DHT22;9755;47.790;9.620;2023-07-31T01:32:03;12.00;99.90
19242;DHT22;9755;47.790;9.620;2023-07-31T01:34:32;12.10;99.90
19242;DHT22;9755;47.790;9.620;2023-07-31T01:37:00;11.90;99.90
19242;DHT22;9755;47.790;9.620;2023-07-31T01:39:27;12.00;99.90
19242;DHT22;9755;47.790;9.620;2023-07-31T01:41:55;11.90;99.90
19242;DHT22;9755;47.790;9.620;2023-07-31T01:44:23;11.70;99.90
19242;DHT22;9755;47.790;9.620;2023-07-31T01:46:50;11.70;99.90
19242;DHT22;9755;47.790;9.620;2023-07-31T01:49:17;11.80;99.90
19242;DHT22;9755;47.790;9.620;2023-07-31T01:51:44;11.90;99.90
19242;DHT22;9755;47.790;9.620;2023-07-31T01:54:11;11.80;99.90
19242;DHT22;9755;47.790;9.620;2023-07-31T01:56:38;11.90;99.90
19242;DHT22;9755;47.790;9.620;2023-07-31T01:59:06;11.90;99.90
19242;DHT22;9755;47.790;9.620;2023-07-31T02:01:33;11.80;99.90
19242;DHT22;9755;47.790;9.620;2023-07-31T02:04:00;11.80;99.90
19242;DHT22;9755;47.790;9.620;2023-07-31T02:06:28;11.90;99.90
19242;DHT22;9755;47.790;9.620;2023-07-31T02:08:55;11.90;99.90
19242;DHT22;9755;47.790;9.620;2023-07-31T02:11:23;12.00;99.90
19242;DHT22;9755;47.790;9.620;2023-07-31T02:13:51;12.10;99.90
19242;DHT22;9755;47.790;9.620;2023-07-31T02:16:19;12.00;99.90
19242;DHT22;9755;47.790;9.620;2023-07-31T02:18:46;11.90;99.90
19242;DHT22;9755;47.790;9.620;2023-07-31T02:21:14;11.80;99.90
19242;DHT22;9755;47.790;9.620;2023-07-31T02:23:41;11.70;99.90
19242;DHT22;9755;47.790;9.620;2023-07-31T02:26:08;11.60;99.90
19242;DHT22;9755;47.790;9.620;2023-07-31T02:28:35;11.60;99.90
19242;DHT22;9755;47.790;9.620;2023-07-31T02:31:03;11.50;99.90
19242;DHT22;9755;47.790;9.620;2023-07-31T02:33:31;11.70;99.90
19242;DHT22;9755;47.790;9.620;2023-07-31T02:35:58;11.80;99.90
19242;DHT22;9755;47.790;9.620;2023-07-31T02:38:25;11.90;99.90
19242;DHT22;9755;47.790;9.620;2023-07-31T02:40:52;11.90;99.90
19242;DHT22;9755;47.790;9.620;2023-07-31T02:43:19;12.10;99.90
19242;DHT22;9755;47.790;9.620;2023-07-31T02:45:53;12.20;99.90
19242;DHT22;9755;47.790;9.620;2023-07-31T02:48:20;12.20;99.90
19242;DHT22;9755;47.790;9.620;2023-07-31T02:50:49;12.20;99.90
19242;DHT22;9755;47.790;9.620;2023-07-31T02:53:16;12.20;99.90
19242;DHT22;9755;47.790;9.620;2023-07-31T02:55:43;12.30;99.90
19242;DHT22;9755;47.790;9.620;2023-07-31T02:58:10;12.20;99.90
19242;DHT22;9755;47.790;9.620;2023-07-31T03:00:42;12.20;99.90
19242;DHT22;9755;47.790;9.620;2023-07-31T03:03:09;12.30;99.90
19242;DHT22;9755;47.790;9.620;2023-07-31T03:05:36;12.20;99.90
19242;DHT22;9755;47.790;9.620;2023-07-31T03:08:05;12.20;99.90
19242;DHT22;9755;47.790;9.620;2023-07-31T03:10:32;12.10;99.90
19242;DHT22;9755;47.790;9.620;2023-07-31T03:12:59;12.00;99.90
19242;DHT22;9755;47.790;9.620;2023-07-31T03:15:26;12.00;99.90
19242;DHT22;9755;47.790;9.620;2023-07-31T03:17:53;12.00;99.90
19242;DHT22;9755;47.790;9.620;2023-07-31T03:20:20;12.10;99.90
19242;DHT22;9755;47.790;9.620;2023-07-31T03:22:47;12.10;99.90
19242;DHT22;9755;47.790;9.620;2023-07-31T03:25:16;12.20;99.90
19242;DHT22;9755;47.790;9.620;2023-07-31T03:27:43;12.20;99.90
19242;DHT22;9755;47.790;9.620;2023-07-31T03:30:10;12.30;99.90
19242;DHT22;9755;47.790;9.620;2023-07-31T03:32:37;12.40;99.90
19242;DHT22;9755;47.790;9.620;2023-07-31T03:35:05;12.40;99.90
19242;DHT22;9755;47.790;9.620;2023-07-31T03:37:32;12.40;99.90
19242;DHT22;9755;47.790;9.620;2023-07-31T03:39:59;12.50;99.90
19242;DHT22;9755;47.790;9.620;2023-07-31T03:42:28;12.60;99.90
19242;DHT22;9755;47.790;9.620;2023-07-31T03:44:55;12.60;99.90
19242;DHT22;9755;47.790;9.620;2023-07-31T03:47:22;12.60;99.90
19242;DHT22;9755;47.790;9.620;2023-07-31T03:49:49;12.70;99.90
19242;DHT22;9755;47.790;9.620;2023-07-31T03:52:16;12.80;99.90
19242;DHT22;9755;47.790;9.620;2023-07-31T03:54:43;12.80;99.90
19242;DHT22;9755;47.790;9.620;2023-07-31T03:57:10;12.90;99.90
19242;DHT22;9755;47.790;9.620;2023-07-31T03:59:39;13.00;99.90
19242;DHT22;9755;47.790;9.620;2023-07-31T04:02:06;13.00;99.90
19242;DHT22;9755;47.790;9.620;2023-07-31T04:04:33;12.90;99.90
19242;DHT22;9755;47.790;9.620;2023-07-31T04:07:00;12.90;99.90
19242;DHT22;9755;47.790;9.620;2023-07-31T04:09:27;13.00;99.90
19242;DHT22;9755;47.790;9.620;2023-07-31T04:11:54;13.10;99.90
19242;DHT22;9755;47.790;9.620;2023-07-31T04:14:21;13.10;99.90
19242;DHT22;9755;47.790;9.620;2023-07-31T04:16:50;13.20;99.90
19242;DHT22;9755;47.790;9.620;2023-07-31T04:19:18;13.30;99.90
19242;DHT22;9755;47.790;9.620;2023-07-31T04:21:45;13.30;99.90
19242;DHT22;9755;47.790;9.620;2023-07-31T04:24:12;13.40;99.90
19242;DHT22;9755;47.790;9.620;2023-07-31T04:26:39;13.50;99.90
19242;DHT22;9755;47.790;9.620;2023-07-31T04:29:06;13.60;99.90
19242;DHT22;9755;47.790;9.620;2023-07-31T04:31:34;13.70;99.90
19242;DHT22;9755;47.790;9.620;2023-07-31T04:34:03;13.80;99.90
19242;DHT22;9755;47.790;9.620;2023-07-31T04:36:30;13.80;99.90
19242;DHT22;9755;47.790;9.620;2023-07-31T04:38:57;13.90;99.90
19242;DHT22;9755;47.790;9.620;2023-07-31T04:41:24;13.80;99.90
19242;DHT22;9755;47.790;9.620;2023-07-31T04:43:51;13.80;99.90
19242;DHT22;9755;47.790;9.620;2023-07-31T04:46:18;13.80;99.90
19242;DHT22;9755;47.790;9.620;2023-07-31T04:48:45;13.90;99.90
19242;DHT22;9755;47.790;9.620;2023-07-31T04:51:14;14.00;99.90
19242;DHT22;9755;47.790;9.620;2023-07-31T04:53:41;14.10;99.90
19242;DHT22;9755;47.790;9.620;2023-07-31T04:56:08;14.20;99.90
19242;DHT22;9755;47.790;9.620;2023-07-31T04:58:35;14.40;99.90
19242;DHT22;9755;47.790;9.620;2023-07-31T05:01:02;14.50;99.90
19242;DHT22;9755;47.790;9.620;2023-07-31T05:03:29;14.80;99.90
19242;DHT22;9755;47.790;9.620;2023-07-31T05:05:56;15.00;99.90
19242;DHT22;9755;47.790;9.620;2023-07-31T05:08:24;15.20;99.90
19242;DHT22;9755;47.790;9.620;2023-07-31T05:10:52;15.40;99.90
19242;DHT22;9755;47.790;9.620;2023-07-31T05:13:19;15.60;99.90
19242;DHT22;9755;47.790;9.620;2023-07-31T05:15:46;15.70;99.90
19242;DHT22;9755;47.790;9.620;2023-07-31T05:18:15;15.90;99.90
19242;DHT22;9755;47.790;9.620;2023-07-31T05:20:42;16.00;99.90
19242;DHT22;9755;47.790;9.620;2023-07-31T05:23:09;16.50;99.90
19242;DHT22;9755;47.790;9.620;2023-07-31T05:25:37;16.90;99.90
19242;DHT22;9755;47.790;9.620;2023-07-31T05:28:04;17.40;99.90
19242;DHT22;9755;47.790;9.620;2023-07-31T05:30:31;17.50;99.90
19242;DHT22;9755;47.790;9.620;2023-07-31T05:32:58;18.20;99.90
19242;DHT22;9755;47.790;9.620;2023-07-31T05:35:25;18.40;99.90
19242;DHT22;9755;47.790;9.620;2023-07-31T05:37:52;18.80;99.90
19242;DHT22;9755;47.790;9.620;2023-07-31T05:40:19;19.10;99.90
19242;DHT22;9755;47.790;9.620;2023-07-31T05:42:48;19.00;99.90
19242;DHT22;9755;47.790;9.620;2023-07-31T05:45:15;18.80;99.90
19242;DHT22;9755;47.790;9.620;2023-07-31T05:47:42;19.20;99.90
19242;DHT22;9755;47.790;9.620;2023-07-31T05:50:09;19.40;99.90
19242;DHT22;9755;47.790;9.620;2023-07-31T05:52:36;20.00;99.90
19242;DHT22;9755;47.790;9.620;2023-07-31T05:55:04;19.60;99.90
19242;DHT22;9755;47.790;9.620;2023-07-31T05:57:31;19.40;99.90
19242;DHT22;9755;47.790;9.620;2023-07-31T05:59:59;19.40;99.90
19242;DHT22;9755;47.790;9.620;2023-07-31T06:02:26;19.30;99.90
19242;DHT22;9755;47.790;9.620;2023-07-31T06:04:53;19.20;99.90
19242;DHT22;9755;47.790;9.620;2023-07-31T06:07:20;18.90;99.90
19242;DHT22;9755;47.790;9.620;2023-07-31T06:09:47;18.60;99.90
19242;DHT22;9755;47.790;9.620;2023-07-31T06:12:15;18.30;99.90
19242;DHT22;9755;47.790;9.620;2023-07-31T06:14:44;18.00;99.90
19242;DHT22;9755;47.790;9.620;2023-07-31T06:17:12;18.00;99.90
19242;DHT22;9755;47.790;9.620;2023-07-31T06:19:39;17.80;99.90
19242;DHT22;9755;47.790;9.620;2023-07-31T06:22:06;17.70;99.90
19242;DHT22;9755;47.790;9.620;2023-07-31T06:24:33;17.90;99.90
19242;DHT22;9755;47.790;9.620;2023-07-31T06:27:00;18.10;99.90
19242;DHT22;9755;47.790;9.620;2023-07-31T06:29:29;18.10;99.90
19242;DHT22;9755;47.790;9.620;2023-07-31T06:31:56;18.60;99.90
19242;DHT22;9755;47.790;9.620;2023-07-31T06:34:25;19.40;99.90
19242;DHT22;9755;47.790;9.620;2023-07-31T06:36:52;19.90;99.90
19242;DHT22;9755;47.790;9.620;2023-07-31T06:39:22;20.00;99.90
19242;DHT22;9755;47.790;9.620;2023-07-31T06:41:49;20.20;99.90
19242;DHT22;9755;47.790;9.620;2023-07-31T06:44:16;20.60;99.90
19242;DHT22;9755;47.790;9.620;2023-07-31T06:46:43;21.60;96.90
19242;DHT22;9755;47.790;9.620;2023-07-31T06:49:10;22.30;92.50
19242;DHT22;9755;47.790;9.620;2023-07-31T06:51:38;23.20;84.40
19242;DHT22;9755;47.790;9.620;2023-07-31T06:54:06;22.60;86.90
19242;DHT22;9755;47.790;9.620;2023-07-31T06:56:33;21.20;95.00
19242;DHT22;9755;47.790;9.620;2023-07-31T06:59:00;20.80;96.50
19242;DHT22;9755;47.790;9.620;2023-07-31T07:01:27;19.90;99.90
19242;DHT22;9755;47.790;9.620;2023-07-31T07:03:54;19.40;99.90
19242;DHT22;9755;47.790;9.620;2023-07-31T07:06:22;19.50;99.90
19242;DHT22;9755;47.790;9.620;2023-07-31T07:08:51;19.50;99.90
19242;DHT22;9755;47.790;9.620;2023-07-31T07:11:18;19.50;99.90
19242;DHT22;9755;47.790;9.620;2023-07-31T07:13:45;19.50;99.90
19242;DHT22;9755;47.790;9.620;2023-07-31T07:16:12;19.60;99.90
19242;DHT22;9755;47.790;9.620;2023-07-31T07:18:39;19.50;99.90
19242;DHT22;9755;47.790;9.620;2023-07-31T07:21:06;19.40;99.90
19242;DHT22;9755;47.790;9.620;2023-07-31T07:23:34;19.60;99.90
19242;DHT22;9755;47.790;9.620;2023-07-31T07:26:02;19.60;99.90
19242;DHT22;9755;47.790;9.620;2023-07-31T07:28:29;19.40;99.90
19242;DHT22;9755;47.790;9.620;2023-07-31T07:30:56;19.70;99.90
19242;DHT22;9755;47.790;9.620;2023-07-31T07:33:23;19.50;99.90
19242;DHT22;9755;47.790;9.620;2023-07-31T07:35:50;19.80;99.90
19242;DHT22;9755;47.790;9.620;2023-07-31T07:38:17;19.90;99.90
19242;DHT22;9755;47.790;9.620;2023-07-31T07:40:46;20.00;99.90
19242;DHT22;9755;47.790;9.620;2023-07-31T07:43:17;21.50;96.60
19242;DHT22;9755;47.790;9.620;2023-07-31T07:45:44;22.00;89.10
19242;DHT22;9755;47.790;9.620;2023-07-31T07:48:11;21.40;87.80
19242;DHT22;9755;47.790;9.620;2023-07-31T07:50:38;21.00;91.80
19242;DHT22;9755;47.790;9.620;2023-07-31T07:53:05;20.80;90.20
19242;DHT22;9755;47.790;9.620;2023-07-31T07:55:32;20.70;91.30
19242;DHT22;9755;47.790;9.620;2023-07-31T07:58:00;20.40;91.00
19242;DHT22;9755;47.790;9.620;2023-07-31T08:00:28;20.40;93.00
19242;DHT22;9755;47.790;9.620;2023-07-31T08:02:55;20.30;94.60
19242;DHT22;9755;47.790;9.620;2023-07-31T08:05:26;21.00;91.90
19242;DHT22;9755;47.790;9.620;2023-07-31T08:07:53;22.00;84.00
19242;DHT22;9755;47.790;9.620;2023-07-31T08:10:20;22.80;80.50
19242;DHT22;9755;47.790;9.620;2023-07-31T08:12:47;23.50;70.60
19242;DHT22;9755;47.790;9.620;2023-07-31T08:15:14;23.90;65.30
19242;DHT22;9755;47.790;9.620;2023-07-31T08:17:43;23.90;57.80
19242;DHT22;9755;47.790;9.620;2023-07-31T08:20:11;23.60;59.10
19242;DHT22;9755;47.790;9.620;2023-07-31T08:22:38;24.20;57.10
19242;DHT22;9755;47.790;9.620;2023-07-31T08:25:06;25.80;51.30
19242;DHT22;9755;47.790;9.620;2023-07-31T08:27:34;26.80;38.30
19242;DHT22;9755;47.790;9.620;2023-07-31T08:30:04;27.70;32.70
19242;DHT22;9755;47.790;9.620;2023-07-31T08:32:31;28.40;30.40
19242;DHT22;9755;47.790;9.620;2023-07-31T08:35:00;26.50;28.70
19242;DHT22;9755;47.790;9.620;2023-07-31T08:37:28;25.00;35.20
19242;DHT22;9755;47.790;9.620;2023-07-31T08:39:55;25.30;38.30
19242;DHT22;9755;47.790;9.620;2023-07-31T08:42:22;25.30;35.40
19242;DHT22;9755;47.790;9.620;2023-07-31T08:44:51;25.80;34.40
19242;DHT22;9755;47.790;9.620;2023-07-31T08:47:20;26.60;30.00
19242;DHT22;9755;47.790;9.620;2023-07-31T08:49:48;27.50;25.20
19242;DHT22;9755;47.790;9.620;2023-07-31T08:52:16;27.30;23.40
19242;DHT22;9755;47.790;9.620;2023-07-31T08:54:43;26.90;24.70
19242;DHT22;9755;47.790;9.620;2023-07-31T08:57:11;27.70;23.20
19242;DHT22;9755;47.790;9.620;2023-07-31T08:59:39;28.20;20.70
19242;DHT22;9755;47.790;9.620;2023-07-31T09:02:08;26.40;25.40
19242;DHT22;9755;47.790;9.620;2023-07-31T09:04:36;27.20;21.20
19242;DHT22;9755;47.790;9.620;2023-07-31T09:07:04;26.90;23.00
19242;DHT22;9755;47.790;9.620;2023-07-31T09:09:33;27.50;19.50
19242;DHT22;9755;47.790;9.620;2023-07-31T09:12:00;26.70;21.60
19242;DHT22;9755;47.790;9.620;2023-07-31T09:14:28;27.50;19.00
19242;DHT22;9755;47.790;9.620;2023-07-31T09:16:56;27.90;14.60
19242;DHT22;9755;47.790;9.620;2023-07-31T09:19:29;27.90;12.20
19242;DHT22;9755;47.790;9.620;2023-07-31T09:21:56;26.30;16.10
19242;DHT22;9755;47.790;9.620;2023-07-31T09:24:27;27.50;14.30
19242;DHT22;9755;47.790;9.620;2023-07-31T09:26:56;27.10;13.40
19242;DHT22;9755;47.790;9.620;2023-07-31T09:29:24;27.40;14.00
19242;DHT22;9755;47.790;9.620;2023-07-31T09:31:53;27.00;13.30
19242;DHT22;9755;47.790;9.620;2023-07-31T09:34:21;26.90;11.90
19242;DHT22;9755;47.790;9.620;2023-07-31T09:36:54;27.60;13.70
19242;DHT22;9755;47.790;9.620;2023-07-31T09:39:22;28.50;7.60
19242;DHT22;9755;47.790;9.620;2023-07-31T09:41:55;27.40;8.10
19242;DHT22;9755;47.790;9.620;2023-07-31T09:44:37;26.80;10.20
19242;DHT22;9755;47.790;9.620;2023-07-31T09:47:05;27.80;12.60
19242;DHT22;9755;47.790;9.620;2023-07-31T09:49:32;27.20;9.40
19242;DHT22;9755;47.790;9.620;2023-07-31T09:51:59;27.30;12.60
19242;DHT22;9755;47.790;9.620;2023-07-31T09:54:26;26.30;11.50
19242;DHT22;9755;47.790;9.620;2023-07-31T09:56:56;26.90;11.30
19242;DHT22;9755;47.790;9.620;2023-07-31T09:59:25;26.60;10.10
19242;DHT22;9755;47.790;9.620;2023-07-31T10:01:54;26.00;12.30
19242;DHT22;9755;47.790;9.620;2023-07-31T10:04:25;25.70;12.80
19242;DHT22;9755;47.790;9.620;2023-07-31T10:06:54;26.50;13.80
19242;DHT22;9755;47.790;9.620;2023-07-31T10:09:22;25.90;13.20
19242;DHT22;9755;47.790;9.620;2023-07-31T10:11:55;25.10;13.00
19242;DHT22;9755;47.790;9.620;2023-07-31T10:14:26;24.70;15.60
19242;DHT22;9755;47.790;9.620;2023-07-31T10:16:54;24.40;17.90
19242;DHT22;9755;47.790;9.620;2023-07-31T10:19:21;24.40;17.40
19242;DHT22;9755;47.790;9.620;2023-07-31T10:21:49;24.20;19.00
19242;DHT22;9755;47.790;9.620;2023-07-31T10:24:16;24.00;21.40
19242;DHT22;9755;47.790;9.620;2023-07-31T10:26:45;24.00;25.60
19242;DHT22;9755;47.790;9.620;2023-07-31T10:29:15;24.00;24.90
19242;DHT22;9755;47.790;9.620;2023-07-31T10:31:44;24.60;26.80
19242;DHT22;9755;47.790;9.620;2023-07-31T10:34:12;26.20;23.00
19242;DHT22;9755;47.790;9.620;2023-07-31T10:36:39;27.10;19.00
19242;DHT22;9755;47.790;9.620;2023-07-31T10:39:33;26.60;14.40
19242;DHT22;9755;47.790;9.620;2023-07-31T10:42:09;26.50;15.80
19242;DHT22;9755;47.790;9.620;2023-07-31T10:44:38;26.60;13.20
19242;DHT22;9755;47.790;9.620;2023-07-31T10:47:10;26.40;13.60
19242;DHT22;9755;47.790;9.620;2023-07-31T10:49:39;25.90;14.40
19242;DHT22;9755;47.790;9.620;2023-07-31T10:52:10;25.40;18.20
19242;DHT22;9755;47.790;9.620;2023-07-31T10:54:39;25.20;18.70
19242;DHT22;9755;47.790;9.620;2023-07-31T10:57:19;25.70;20.20
19242;DHT22;9755;47.790;9.620;2023-07-31T10:59:48;26.00;17.80
19242;DHT22;9755;47.790;9.620;2023-07-31T11:02:25;25.50;16.30
19242;DHT22;9755;47.790;9.620;2023-07-31T11:05:06;25.90;18.70
19242;DHT22;9755;47.790;9.620;2023-07-31T11:07:46;26.70;13.80
19242;DHT22;9755;47.790;9.620;2023-07-31T11:10:16;26.50;14.70
19242;DHT22;9755;47.790;9.620;2023-07-31T11:12:45;26.70;16.70
19242;DHT22;9755;47.790;9.620;2023-07-31T11:15:14;26.60;14.00
19242;DHT22;9755;47.790;9.620;2023-07-31T11:17:41;27.40;13.90
19242;DHT22;9755;47.790;9.620;2023-07-31T11:20:09;26.40;9.10
19242;DHT22;9755;47.790;9.620;2023-07-31T11:22:36;26.50;10.00
19242;DHT22;9755;47.790;9.620;2023-07-31T11:25:04;27.30;9.00
19242;DHT22;9755;47.790;9.620;2023-07-31T11:27:31;27.20;8.20
19242;DHT22;9755;47.790;9.620;2023-07-31T11:30:06;27.60;10.30
19242;DHT22;9755;47.790;9.620;2023-07-31T11:32:36;27.60;9.30
19242;DHT22;9755;47.790;9.620;2023-07-31T11:35:03;26.60;9.10
19242;DHT22;9755;47.790;9.620;2023-07-31T11:37:41;26.00;10.20
19242;DHT22;9755;47.790;9.620;2023-07-31T11:40:09;25.90;13.50
19242;DHT22;9755;47.790;9.620;2023-07-31T11:42:36;26.20;12.80
19242;DHT22;9755;47.790;9.620;2023-07-31T11:45:04;26.00;14.10
19242;DHT22;9755;47.790;9.620;2023-07-31T11:47:34;26.00;15.20
19242;DHT22;9755;47.790;9.620;2023-07-31T11:50:01;26.40;16.20
19242;DHT22;9755;47.790;9.620;2023-07-31T11:52:30;26.40;14.70
19242;DHT22;9755;47.790;9.620;2023-07-31T11:54:59;26.80;15.80
19242;DHT22;9755;47.790;9.620;2023-07-31T11:57:26;27.60;15.20
19242;DHT22;9755;47.790;9.620;2023-07-31T11:59:54;28.40;10.40
19242;DHT22;9755;47.790;9.620;2023-07-31T12:02:22;29.80;11.80
19242;DHT22;9755;47.790;9.620;2023-07-31T12:04:50;30.40;2.20
19242;DHT22;9755;47.790;9.620;2023-07-31T12:07:17;29.50;2.60
19242;DHT22;9755;47.790;9.620;2023-07-31T12:09:52;29.30;1.10
19242;DHT22;9755;47.790;9.620;2023-07-31T12:12:23;29.70;1.00
19242;DHT22;9755;47.790;9.620;2023-07-31T12:14:50;29.30;2.00
19242;DHT22;9755;47.790;9.620;2023-07-31T12:17:18;29.40;2.60
19242;DHT22;9755;47.790;9.620;2023-07-31T12:19:49;29.60;1.00
19242;DHT22;9755;47.790;9.620;2023-07-31T12:22:16;28.50;1.00
19242;DHT22;9755;47.790;9.620;2023-07-31T12:24:44;27.00;1.10
19242;DHT22;9755;47.790;9.620;2023-07-31T12:27:12;26.50;2.50
19242;DHT22;9755;47.790;9.620;2023-07-31T12:29:39;26.30;3.90
19242;DHT22;9755;47.790;9.620;2023-07-31T12:32:21;26.30;4.50
19242;DHT22;9755;47.790;9.620;2023-07-31T12:34:51;26.70;8.40
19242;DHT22;9755;47.790;9.620;2023-07-31T12:37:18;27.40;5.10
19242;DHT22;9755;47.790;9.620;2023-07-31T12:39:45;27.40;2.60
19242;DHT22;9755;47.790;9.620;2023-07-31T12:42:12;27.20;2.00
19242;DHT22;9755;47.790;9.620;2023-07-31T12:44:39;27.60;1.00
19242;DHT22;9755;47.790;9.620;2023-07-31T12:47:06;27.80;1.00
19242;DHT22;9755;47.790;9.620;2023-07-31T12:49:33;28.30;2.00
19242;DHT22;9755;47.790;9.620;2023-07-31T12:52:02;28.50;1.00
19242;DHT22;9755;47.790;9.620;2023-07-31T12:54:29;28.30;1.00
19242;DHT22;9755;47.790;9.620;2023-07-31T12:56:56;27.90;1.00
19242;DHT22;9755;47.790;9.620;2023-07-31T12:59:23;27.90;1.00
19242;DHT22;9755;47.790;9.620;2023-07-31T13:01:52;27.70;1.00
19242;DHT22;9755;47.790;9.620;2023-07-31T13:04:19;26.40;1.00
19242;DHT22;9755;47.790;9.620;2023-07-31T13:06:47;26.20;1.00
19242;DHT22;9755;47.790;9.620;2023-07-31T13:09:15;25.60;1.00
19242;DHT22;9755;47.790;9.620;2023-07-31T13:11:43;25.70;1.00
19242;DHT22;9755;47.790;9.620;2023-07-31T13:14:10;26.90;1.00
19242;DHT22;9755;47.790;9.620;2023-07-31T13:16:38;27.30;1.00
19242;DHT22;9755;47.790;9.620;2023-07-31T13:19:05;27.80;1.00
19242;DHT22;9755;47.790;9.620;2023-07-31T13:21:32;27.70;1.00
19242;DHT22;9755;47.790;9.620;2023-07-31T13:24:01;27.10;1.00
19242;DHT22;9755;47.790;9.620;2023-07-31T13:26:30;26.30;1.00
19242;DHT22;9755;47.790;9.620;2023-07-31T13:28:58;26.00;1.00
19242;DHT22;9755;47.790;9.620;2023-07-31T13:31:25;25.30;1.00
19242;DHT22;9755;47.790;9.620;2023-07-31T13:33:52;25.40;1.00
19242;DHT22;9755;47.790;9.620;2023-07-31T13:36:19;25.60;1.00
19242;DHT22;9755;47.790;9.620;2023-07-31T13:38:46;25.80;1.00
19242;DHT22;9755;47.790;9.620;2023-07-31T13:41:13;25.90;1.00
19242;DHT22;9755;47.790;9.620;2023-07-31T13:43:41;25.70;1.00
19242;DHT22;9755;47.790;9.620;2023-07-31T13:46:08;25.60;1.00
19242;DHT22;9755;47.790;9.620;2023-07-31T13:48:36;25.80;1.00
19242;DHT22;9755;47.790;9.620;2023-07-31T13:51:04;25.50;1.00
19242;DHT22;9755;47.790;9.620;2023-07-31T13:53:31;25.50;1.00
19242;DHT22;9755;47.790;9.620;2023-07-31T13:55:58;25.50;1.00
19242;DHT22;9755;47.790;9.620;2023-07-31T13:58:25;25.40;1.00
19242;DHT22;9755;47.790;9.620;2023-07-31T14:00:53;25.50;1.00
19242;DHT22;9755;47.790;9.620;2023-07-31T14:03:20;25.50;1.00
19242;DHT22;9755;47.790;9.620;2023-07-31T14:05:47;25.50;1.00
19242;DHT22;9755;47.790;9.620;2023-07-31T14:08:14;25.30;1.00
19242;DHT22;9755;47.790;9.620;2023-07-31T14:10:41;25.30;1.00
19242;DHT22;9755;47.790;9.620;2023-07-31T14:13:08;25.20;1.00
19242;DHT22;9755;47.790;9.620;2023-07-31T14:15:35;25.10;1.00
19242;DHT22;9755;47.790;9.620;2023-07-31T14:18:04;25.20;1.00
19242;DHT22;9755;47.790;9.620;2023-07-31T14:20:31;25.50;1.00
19242;DHT22;9755;47.790;9.620;2023-07-31T14:22:58;25.50;1.00
19242;DHT22;9755;47.790;9.620;2023-07-31T14:25:25;26.00;1.50
19242;DHT22;9755;47.790;9.620;2023-07-31T14:27:52;26.30;1.00
19242;DHT22;9755;47.790;9.620;2023-07-31T14:30:20;26.50;1.00
19242;DHT22;9755;47.790;9.620;2023-07-31T14:32:47;26.00;1.00
19242;DHT22;9755;47.790;9.620;2023-07-31T14:35:15;25.80;1.00
19242;DHT22;9755;47.790;9.620;2023-07-31T14:37:43;26.00;1.00
19242;DHT22;9755;47.790;9.620;2023-07-31T14:40:12;25.80;1.00
19242;DHT22;9755;47.790;9.620;2023-07-31T14:42:39;26.20;3.00
19242;DHT22;9755;47.790;9.620;2023-07-31T14:45:08;26.40;1.30
19242;DHT22;9755;47.790;9.620;2023-07-31T14:47:35;26.60;2.00
19242;DHT22;9755;47.790;9.620;2023-07-31T14:50:03;26.80;1.60
19242;DHT22;9755;47.790;9.620;2023-07-31T14:52:31;26.80;3.90
19242;DHT22;9755;47.790;9.620;2023-07-31T14:54:58;27.20;2.40
19242;DHT22;9755;47.790;9.620;2023-07-31T14:57:26;27.10;2.80
19242;DHT22;9755;47.790;9.620;2023-07-31T14:59:53;26.60;1.10
19242;DHT22;9755;47.790;9.620;2023-07-31T15:02:20;26.40;2.00
19242;DHT22;9755;47.790;9.620;2023-07-31T15:04:46;26.20;1.60
19242;DHT22;9755;47.790;9.620;2023-07-31T15:07:14;26.00;2.40
19242;DHT22;9755;47.790;9.620;2023-07-31T15:09:42;25.90;1.40
19242;DHT22;9755;47.790;9.620;2023-07-31T15:12:09;25.90;1.40
19242;DHT22;9755;47.790;9.620;2023-07-31T15:14:36;26.00;1.50
19242;DHT22;9755;47.790;9.620;2023-07-31T15:17:03;25.90;1.80
19242;DHT22;9755;47.790;9.620;2023-07-31T15:19:31;26.00;3.00
19242;DHT22;9755;47.790;9.620;2023-07-31T15:22:00;26.00;2.30
19242;DHT22;9755;47.790;9.620;2023-07-31T15:24:27;26.00;3.50
19242;DHT22;9755;47.790;9.620;2023-07-31T15:26:56;26.00;4.20
19242;DHT22;9755;47.790;9.620;2023-07-31T15:29:23;25.80;3.70
19242;DHT22;9755;47.790;9.620;2023-07-31T15:31:50;25.90;4.30
19242;DHT22;9755;47.790;9.620;2023-07-31T15:34:17;25.70;5.80
19242;DHT22;9755;47.790;9.620;2023-07-31T15:36:44;25.60;5.80
19242;DHT22;9755;47.790;9.620;2023-07-31T15:39:11;25.60;7.00
19242;DHT22;9755;47.790;9.620;2023-07-31T15:41:40;25.60;5.50
19242;DHT22;9755;47.790;9.620;2023-07-31T15:44:09;25.60;6.10
19242;DHT22;9755;47.790;9.620;2023-07-31T15:46:36;25.60;6.80
19242;DHT22;9755;47.790;9.620;2023-07-31T15:49:03;25.70;6.70
19242;DHT22;9755;47.790;9.620;2023-07-31T15:51:30;25.60;6.20
19242;DHT22;9755;47.790;9.620;2023-07-31T15:53:57;25.30;5.00
19242;DHT22;9755;47.790;9.620;2023-07-31T15:56:24;25.20;7.40